createdAt,value
2022-10-22T00:02:21.287Z,100613.97
2022-10-22T00:04:52.281Z,100611.41
2022-10-22T00:07:22.166Z,100608.09
2022-10-22T00:09:51.915Z,100604.84
2022-10-22T00:12:22.155Z,100612.38
2022-10-22T00:14:52.069Z,100611.19
2022-10-22T00:17:22.180Z,100609.59
2022-10-22T00:19:53.113Z,100598.28
2022-10-22T00:22:22.588Z,100604.91
2022-10-22T00:24:52.231Z,100601.00
2022-10-22T00:27:21.774Z,100609.88
2022-10-22T00:29:51.357Z,100600.94
2022-10-22T00:32:20.879Z,100603.75
2022-10-22T00:34:50.449Z,100592.84
2022-10-22T00:37:21.343Z,100598.94
2022-10-22T00:39:50.877Z,100598.25
2022-10-22T00:42:22.160Z,100603.16
2022-10-22T00:45:09.559Z,100591.75
2022-10-22T00:47:40.179Z,100586.00
2022-10-22T00:50:12.003Z,100580.13
2022-10-22T00:52:43.400Z,100576.69
2022-10-22T00:55:13.911Z,100577.03
2022-10-22T00:57:43.795Z,100579.72
2022-10-22T01:00:13.898Z,100584.88
2022-10-22T01:02:43.833Z,100584.88
2022-10-22T01:05:13.388Z,100578.72
2022-10-22T01:07:46.226Z,100585.56
2022-10-22T01:10:26.130Z,100585.06
2022-10-22T01:13:00.574Z,100582.50
2022-10-22T01:15:34.075Z,100577.03
2022-10-22T01:18:06.562Z,100570.88
2022-10-22T01:21:03.248Z,100574.97
2022-10-22T01:23:57.806Z,100567.19
2022-10-22T01:26:30.321Z,100567.72
2022-10-22T01:29:02.580Z,100569.41
2022-10-22T01:31:34.864Z,100570.03
2022-10-22T01:34:04.681Z,100573.13
2022-10-22T01:36:36.055Z,100565.91
2022-10-22T01:39:06.740Z,100563.56
2022-10-22T01:41:36.863Z,100568.34
2022-10-22T01:44:07.878Z,100555.50
2022-10-22T01:46:38.343Z,100546.94
2022-10-22T01:49:16.989Z,100551.97
2022-10-22T01:51:54.226Z,100543.19
2022-10-22T01:54:28.632Z,100553.97
2022-10-22T01:57:06.718Z,100544.56
2022-10-22T01:59:43.971Z,100545.25
2022-10-22T02:02:19.396Z,100543.59
2022-10-22T02:04:50.692Z,100546.66
2022-10-22T02:07:27.070Z,100546.44
2022-10-22T02:09:57.356Z,100547.09
2022-10-22T02:12:30.409Z,100544.69
2022-10-22T02:15:03.813Z,100537.59
2022-10-22T02:17:34.260Z,100545.25
2022-10-22T02:20:07.133Z,100548.97
2022-10-22T02:22:37.520Z,100545.44
2022-10-22T02:25:07.998Z,100546.66
2022-10-22T02:27:40.078Z,100546.59
2022-10-22T02:30:12.602Z,100545.75
2022-10-22T02:32:44.410Z,100552.22
2022-10-22T02:35:16.230Z,100555.25
2022-10-22T02:37:46.186Z,100559.69
2022-10-22T02:40:15.702Z,100559.53
2022-10-22T02:42:47.707Z,100561.16
2022-10-22T02:45:19.748Z,100559.09
2022-10-22T02:47:49.261Z,100556.88
2022-10-22T02:50:19.002Z,100563.97
2022-10-22T02:52:48.491Z,100563.56
2022-10-22T02:55:18.223Z,100558.66
2022-10-22T02:57:47.691Z,100573.34
2022-10-22T03:00:19.058Z,100571.16
2022-10-22T03:02:48.631Z,100567.97
2022-10-22T03:05:18.249Z,100570.72
2022-10-22T03:07:47.730Z,100579.53
2022-10-22T03:10:17.197Z,100572.06
2022-10-22T03:12:48.337Z,100570.78
2022-10-22T03:15:19.697Z,100575.19
2022-10-22T03:17:49.642Z,100574.09
2022-10-22T03:20:19.197Z,100572.78
2022-10-22T03:22:48.798Z,100573.13
2022-10-22T03:25:20.730Z,100571.91
2022-10-22T03:27:51.102Z,100575.66
2022-10-22T03:30:22.219Z,100585.38
2022-10-22T03:32:51.725Z,100577.75
2022-10-22T03:35:21.237Z,100578.38
2022-10-22T03:37:51.483Z,100577.53
2022-10-22T03:40:21.525Z,100580.91
2022-10-22T03:42:51.010Z,100586.25
2022-10-22T03:45:20.490Z,100582.94
2022-10-22T03:47:51.504Z,100576.53
2022-10-22T03:50:21.037Z,100576.06
2022-10-22T03:52:50.503Z,100574.19
2022-10-22T03:55:20.126Z,100563.31
2022-10-22T03:57:49.611Z,100565.34
2022-10-22T04:00:19.607Z,100558.47
2022-10-22T04:02:49.104Z,100555.00
2022-10-22T04:05:20.219Z,100557.13
2022-10-22T04:07:49.821Z,100557.34
2022-10-22T04:10:19.427Z,100556.13
2022-10-22T04:12:49.636Z,100557.56
2022-10-22T04:15:19.645Z,100560.94
2022-10-22T04:17:49.298Z,100550.44
2022-10-22T04:20:20.251Z,100542.72
2022-10-22T04:22:49.771Z,100541.13
2022-10-22T04:25:19.313Z,100543.00
2022-10-22T04:27:48.815Z,100545.72
2022-10-22T04:30:18.455Z,100542.28
2022-10-22T04:32:48.162Z,100546.88
2022-10-22T04:35:17.861Z,100539.75
2022-10-22T04:37:48.765Z,100547.09
2022-10-22T04:40:18.332Z,100549.44
2022-10-22T04:42:47.870Z,100555.22
2022-10-22T04:45:17.407Z,100554.19
2022-10-22T04:47:48.449Z,100556.22
2022-10-22T04:50:18.414Z,100550.75
2022-10-22T04:52:49.249Z,100550.16
2022-10-22T04:55:18.981Z,100545.56
2022-10-22T04:57:48.491Z,100541.53
2022-10-22T05:00:18.196Z,100544.78
2022-10-22T05:02:50.173Z,100549.78
2022-10-22T05:05:19.706Z,100540.41
2022-10-22T05:07:51.875Z,100542.69
2022-10-22T05:10:21.396Z,100548.28
2022-10-22T05:12:51.566Z,100544.41
2022-10-22T05:15:21.705Z,100551.88
2022-10-22T05:17:51.221Z,100552.09
2022-10-22T05:20:20.723Z,100550.50
2022-10-22T05:22:51.603Z,100564.63
2022-10-22T05:25:21.332Z,100563.53
2022-10-22T05:27:51.572Z,100570.38
2022-10-22T05:30:21.138Z,100574.13
2022-10-22T05:32:52.264Z,100581.63
2022-10-22T05:35:22.318Z,100590.94
2022-10-22T05:37:53.233Z,100582.50
2022-10-22T05:40:30.534Z,100578.56
2022-10-22T05:43:00.814Z,100578.75
2022-10-22T05:45:30.334Z,100575.91
2022-10-22T05:48:00.171Z,100573.69
2022-10-22T05:50:29.725Z,100561.31
2022-10-22T05:53:00.678Z,100558.59
2022-10-22T05:55:30.175Z,100561.00
2022-10-22T05:57:59.835Z,100569.09
2022-10-22T06:00:29.491Z,100570.16
2022-10-22T06:02:59.006Z,100565.94
2022-10-22T06:05:28.614Z,100558.81
2022-10-22T06:07:58.930Z,100564.28
2022-10-22T06:10:30.288Z,100569.00
2022-10-22T06:13:01.572Z,100552.38
2022-10-22T06:15:31.699Z,100555.47
2022-10-22T06:18:01.223Z,100566.06
2022-10-22T06:20:30.918Z,100564.47
2022-10-22T06:23:01.850Z,100563.16
2022-10-22T06:25:32.800Z,100561.03
2022-10-22T06:28:02.352Z,100560.00
2022-10-22T06:30:32.004Z,100546.44
2022-10-22T06:33:01.508Z,100536.84
2022-10-22T06:35:31.010Z,100540.78
2022-10-22T06:38:00.423Z,100530.69
2022-10-22T06:40:29.966Z,100528.31
2022-10-22T06:43:01.486Z,100527.28
2022-10-22T06:45:30.926Z,100523.34
2022-10-22T06:48:01.139Z,100522.38
2022-10-22T06:50:30.718Z,100525.94
2022-10-22T06:53:00.264Z,100522.28
2022-10-22T06:55:29.978Z,100525.88
2022-10-22T06:58:00.993Z,100526.97
2022-10-22T07:00:30.879Z,100514.91
2022-10-22T07:03:00.411Z,100522.28
2022-10-22T07:05:29.976Z,100529.31
2022-10-22T07:07:59.483Z,100540.03
2022-10-22T07:10:30.682Z,100538.13
2022-10-22T07:13:02.687Z,100535.66
2022-10-22T07:15:32.816Z,100536.53
2022-10-22T07:18:04.691Z,100539.66
2022-10-22T07:20:34.239Z,100547.47
2022-10-22T07:23:03.775Z,100550.25
2022-10-22T07:25:33.315Z,100546.00
2022-10-22T07:28:04.517Z,100553.69
2022-10-22T07:30:34.162Z,100553.38
2022-10-22T07:33:03.741Z,100540.25
2022-10-22T07:35:34.479Z,100539.19
2022-10-22T07:38:04.316Z,100549.97
2022-10-22T07:40:34.016Z,100549.81
2022-10-22T07:43:05.671Z,100550.47
2022-10-22T07:45:35.275Z,100547.91
2022-10-22T07:48:04.972Z,100543.03
2022-10-22T07:50:34.542Z,100520.69
2022-10-22T07:53:04.107Z,100527.44
2022-10-22T07:55:33.777Z,100519.88
2022-10-22T07:58:04.927Z,100520.09
2022-10-22T08:00:34.665Z,100516.50
2022-10-22T08:03:04.454Z,100513.25
2022-10-22T08:05:34.255Z,100524.22
2022-10-22T08:08:03.851Z,100526.66
2022-10-22T08:10:33.509Z,100517.31
2022-10-22T08:13:05.301Z,100522.56
2022-10-22T08:15:35.718Z,100531.34
2022-10-22T08:18:05.580Z,100527.22
2022-10-22T08:20:35.180Z,100521.19
2022-10-22T08:23:04.830Z,100520.94
2022-10-22T08:25:34.807Z,100519.31
2022-10-22T08:28:05.748Z,100523.50
2022-10-22T08:30:37.942Z,100520.56
2022-10-22T08:33:07.632Z,100521.03
2022-10-22T08:35:37.225Z,100518.84
2022-10-22T08:38:06.854Z,100527.38
2022-10-22T08:40:39.406Z,100516.75
2022-10-22T08:43:35.972Z,100509.09
2022-10-22T08:46:12.072Z,100502.41
2022-10-22T08:48:46.937Z,100501.19
2022-10-22T08:51:17.647Z,100497.88
2022-10-22T08:53:55.099Z,100501.63
2022-10-22T08:56:24.775Z,100503.91
2022-10-22T08:58:57.036Z,100498.31
2022-10-22T09:01:33.488Z,100491.59
2022-10-22T09:04:05.744Z,100485.75
2022-10-22T09:06:36.858Z,100485.50
2022-10-22T09:09:11.662Z,100497.41
2022-10-22T09:11:44.571Z,100493.72
2022-10-22T09:14:16.957Z,100495.66
2022-10-22T09:17:10.408Z,100483.47
2022-10-22T09:19:44.179Z,100465.78
2022-10-22T09:22:21.743Z,100465.53
2022-10-22T09:24:55.397Z,100471.34
2022-10-22T09:27:28.569Z,100463.63
2022-10-22T09:29:58.580Z,100452.19
2022-10-22T09:32:30.085Z,100454.22
2022-10-22T09:34:59.711Z,100448.22
2022-10-22T09:37:30.439Z,100455.47
2022-10-22T09:40:04.740Z,100450.31
2022-10-22T09:42:35.281Z,100443.41
2022-10-22T09:45:05.097Z,100439.34
2022-10-22T09:48:00.976Z,100432.44
2022-10-22T09:50:29.450Z,100432.16
2022-10-22T09:53:00.235Z,100429.25
2022-10-22T09:55:29.887Z,100429.81
2022-10-22T09:58:00.577Z,100419.53
2022-10-22T10:00:30.809Z,100418.00
2022-10-22T10:03:01.912Z,100416.19
2022-10-22T10:05:32.342Z,100418.31
2022-10-22T10:08:06.921Z,100409.72
2022-10-22T10:10:43.031Z,100405.50
2022-10-22T10:13:19.479Z,100409.75
2022-10-22T10:15:52.891Z,100405.38
2022-10-22T10:18:30.326Z,100401.72
2022-10-22T10:21:06.049Z,100388.84
2022-10-22T10:23:46.283Z,100375.28
2022-10-22T10:26:19.251Z,100374.44
2022-10-22T10:28:56.909Z,100372.72
2022-10-22T10:31:32.977Z,100362.53
2022-10-22T10:34:07.425Z,100368.22
2022-10-22T10:36:40.959Z,100360.88
2022-10-22T10:39:12.470Z,100360.03
2022-10-22T10:41:52.633Z,100360.03
2022-10-22T10:44:38.626Z,100351.25
2022-10-22T10:47:14.032Z,100350.34
2022-10-22T10:49:45.215Z,100327.72
2022-10-22T10:52:21.353Z,100330.56
2022-10-22T10:54:55.699Z,100327.41
2022-10-22T10:57:33.103Z,100325.69
2022-10-22T11:00:05.391Z,100311.50
2022-10-22T11:02:50.344Z,100305.88
2022-10-22T11:05:28.315Z,100299.91
2022-10-22T11:08:00.984Z,100303.31
2022-10-22T11:10:33.069Z,100283.63
2022-10-22T11:13:06.911Z,100291.97
2022-10-22T11:15:38.618Z,100288.53
2022-10-22T11:18:13.885Z,100288.94
2022-10-22T11:20:50.038Z,100274.28
2022-10-22T11:23:24.565Z,100265.84
2022-10-22T11:25:54.423Z,100257.59
2022-10-22T11:28:26.888Z,100251.66
2022-10-22T11:30:59.399Z,100255.13
2022-10-22T11:33:34.044Z,100256.28
2022-10-22T11:36:06.976Z,100252.38
2022-10-22T11:38:37.041Z,100253.31
2022-10-22T11:41:08.038Z,100246.34
2022-10-22T11:43:53.546Z,100248.78
2022-10-22T11:46:28.114Z,100245.78
2022-10-22T11:49:06.525Z,100240.44
2022-10-22T11:51:38.762Z,100243.75
2022-10-22T11:54:29.515Z,100246.06
2022-10-22T11:57:13.998Z,100233.16
2022-10-22T11:59:49.646Z,100229.38
2022-10-22T12:02:36.897Z,100226.94
2022-10-22T12:05:24.942Z,100221.88
2022-10-22T12:07:58.413Z,100205.88
2022-10-22T12:10:29.439Z,100206.56
2022-10-22T12:13:03.940Z,100202.72
2022-10-22T12:15:34.270Z,100201.50
2022-10-22T12:18:06.614Z,100198.31
2022-10-22T12:20:36.203Z,100190.69
2022-10-22T12:23:07.582Z,100197.91
2022-10-22T12:25:38.117Z,100195.81
2022-10-22T12:28:12.528Z,100185.03
2022-10-22T12:30:42.047Z,100187.81
2022-10-22T12:33:19.113Z,100179.91
2022-10-22T12:35:52.888Z,100182.53
2022-10-22T12:38:25.518Z,100174.19
2022-10-22T12:40:56.353Z,100172.16
2022-10-22T12:43:26.521Z,100160.44
2022-10-22T12:45:57.705Z,100160.28
2022-10-22T12:48:29.382Z,100158.75
2022-10-22T12:51:00.410Z,100153.53
2022-10-22T12:53:32.984Z,100155.06
2022-10-22T12:56:03.635Z,100150.25
2022-10-22T12:58:35.303Z,100149.09
2022-10-22T13:01:05.592Z,100148.66
2022-10-22T13:03:38.334Z,100139.91
2022-10-22T13:06:14.482Z,100141.38
2022-10-22T13:08:45.951Z,100142.94
2022-10-22T13:11:21.542Z,100138.88
2022-10-22T13:13:51.576Z,100139.78
2022-10-22T13:16:24.302Z,100134.00
2022-10-22T13:18:54.997Z,100130.25
2022-10-22T13:21:29.697Z,100135.41
2022-10-22T13:24:01.972Z,100124.63
2022-10-22T13:26:33.306Z,100129.31
2022-10-22T13:29:03.936Z,100125.16
2022-10-22T13:31:34.065Z,100120.56
2022-10-22T13:34:09.805Z,100128.31
2022-10-22T13:36:41.303Z,100118.38
2022-10-22T13:39:17.461Z,100116.88
2022-10-22T13:41:47.317Z,100116.63
2022-10-22T13:44:16.822Z,100111.88
2022-10-22T13:46:46.586Z,100108.97
2022-10-22T13:49:18.170Z,100112.88
2022-10-22T13:51:48.252Z,100104.50
2022-10-22T13:54:20.680Z,100105.50
2022-10-22T13:56:50.363Z,100110.34
2022-10-22T13:59:22.912Z,100106.19
2022-10-22T14:01:54.836Z,100103.34
2022-10-22T14:04:24.402Z,100107.34
2022-10-22T14:06:53.899Z,100103.19
2022-10-22T14:09:24.763Z,100092.75
2022-10-22T14:11:54.849Z,100094.81
2022-10-22T14:14:24.772Z,100094.13
2022-10-22T14:16:55.060Z,100086.75
2022-10-22T14:19:24.586Z,100089.38
2022-10-22T14:21:54.129Z,100087.59
2022-10-22T14:24:25.034Z,100083.38
2022-10-22T14:26:54.493Z,100087.06
2022-10-22T14:29:23.989Z,100079.31
2022-10-22T14:31:53.585Z,100081.31
2022-10-22T14:34:23.095Z,100079.06
2022-10-22T14:36:52.566Z,100074.69
2022-10-22T14:39:22.831Z,100067.19
2022-10-22T14:41:53.727Z,100071.69
2022-10-22T14:44:24.311Z,100070.84
2022-10-22T14:46:56.243Z,100062.88
2022-10-22T14:49:26.099Z,100066.53
2022-10-22T14:51:55.554Z,100068.16
2022-10-22T14:54:25.049Z,100072.00
2022-10-22T14:56:55.888Z,100079.69
2022-10-22T14:59:25.858Z,100080.16
2022-10-22T15:01:55.369Z,100089.84
2022-10-22T15:04:25.985Z,100085.44
2022-10-22T15:06:56.678Z,100081.38
2022-10-22T15:09:26.158Z,100083.75
2022-10-22T15:11:57.682Z,100070.78
2022-10-22T15:14:27.582Z,100073.16
2022-10-22T15:16:57.694Z,100076.63
2022-10-22T15:19:27.502Z,100077.91
2022-10-22T15:21:56.992Z,100068.75
2022-10-22T15:24:26.618Z,100067.38
2022-10-22T15:26:57.545Z,100064.16
2022-10-22T15:29:27.099Z,100065.59
2022-10-22T15:31:58.250Z,100060.81
2022-10-22T15:34:29.138Z,100064.97
2022-10-22T15:36:59.755Z,100078.97
2022-10-22T15:39:29.824Z,100084.75
2022-10-22T15:42:00.874Z,100082.38
2022-10-22T15:44:31.635Z,100088.34
2022-10-22T15:47:02.220Z,100083.28
2022-10-22T15:49:37.940Z,100082.88
2022-10-22T15:52:08.927Z,100090.66
2022-10-22T15:54:39.035Z,100087.00
2022-10-22T15:57:10.833Z,100081.09
2022-10-22T15:59:40.394Z,100094.09
2022-10-22T16:02:10.783Z,100095.25
2022-10-22T16:04:40.381Z,100094.28
2022-10-22T16:07:10.127Z,100102.75
2022-10-22T16:09:39.652Z,100101.53
2022-10-22T16:12:13.167Z,100097.28
2022-10-22T16:14:45.311Z,100120.31
2022-10-22T16:17:16.283Z,100111.69
2022-10-22T16:19:46.105Z,100119.19
2022-10-22T16:22:15.800Z,100118.75
2022-10-22T16:24:45.421Z,100113.69
2022-10-22T16:27:16.318Z,100113.13
2022-10-22T16:29:45.851Z,100111.44
2022-10-22T16:32:16.437Z,100118.34
2022-10-22T16:34:46.020Z,100120.19
2022-10-22T16:37:15.606Z,100117.06
2022-10-22T16:39:45.178Z,100117.91
2022-10-22T16:42:16.072Z,100126.25
2022-10-22T16:44:45.596Z,100123.00
2022-10-22T16:47:15.208Z,100130.59
2022-10-22T16:49:46.028Z,100129.19
2022-10-22T16:52:15.601Z,100132.16
2022-10-22T16:54:46.775Z,100122.16
2022-10-22T16:57:17.947Z,100111.69
2022-10-22T16:59:49.913Z,100105.59
2022-10-22T17:02:19.588Z,100119.28
2022-10-22T17:04:51.519Z,100127.31
2022-10-22T17:07:21.099Z,100119.56
2022-10-22T17:09:50.622Z,100114.50
2022-10-22T17:12:22.403Z,100109.69
2022-10-22T17:14:52.389Z,100107.16
2022-10-22T17:17:22.957Z,100122.66
2022-10-22T17:19:52.714Z,100117.56
2022-10-22T17:22:22.320Z,100113.19
2022-10-22T17:25:07.894Z,100120.38
2022-10-22T17:27:39.425Z,100116.16
2022-10-22T17:30:10.160Z,100120.94
2022-10-22T17:32:40.077Z,100116.69
2022-10-22T17:35:09.961Z,100111.34
2022-10-22T17:37:40.239Z,100112.19
2022-10-22T17:40:10.530Z,100120.66
2022-10-22T17:42:41.690Z,100112.78
2022-10-22T17:45:11.375Z,100109.78
2022-10-22T17:47:41.237Z,100107.53
2022-10-22T17:50:12.297Z,100103.41
2022-10-22T17:52:42.965Z,100097.50
2022-10-22T17:55:13.491Z,100101.72
2022-10-22T17:57:44.426Z,100106.19
2022-10-22T18:00:16.167Z,100107.19
2022-10-22T18:02:45.758Z,100112.81
2022-10-22T18:05:15.341Z,100108.47
2022-10-22T18:07:45.134Z,100112.09
2022-10-22T18:10:14.866Z,100108.00
2022-10-22T18:12:49.565Z,100114.19
2022-10-22T18:15:19.856Z,100119.66
2022-10-22T18:17:50.350Z,100114.31
2022-10-22T18:20:19.915Z,100107.81
2022-10-22T18:22:54.521Z,100114.31
2022-10-22T18:25:24.172Z,100109.59
2022-10-22T18:27:55.179Z,100108.72
2022-10-22T18:30:24.780Z,100118.25
2022-10-22T18:32:54.272Z,100123.47
2022-10-22T18:35:23.991Z,100115.31
2022-10-22T18:37:53.525Z,100111.25
2022-10-22T18:40:23.439Z,100118.09
2022-10-22T18:42:53.228Z,100126.41
2022-10-22T18:45:24.433Z,100122.00
2022-10-22T18:47:54.027Z,100120.63
2022-10-22T18:50:23.592Z,100117.22
2022-10-22T18:52:53.247Z,100120.03
2022-10-22T18:55:22.791Z,100117.38
2022-10-22T18:57:52.508Z,100125.00
2022-10-22T19:00:22.084Z,100123.31
2022-10-22T19:02:53.128Z,100124.22
2022-10-22T19:05:23.374Z,100127.50
2022-10-22T19:07:53.061Z,100118.75
2022-10-22T19:10:22.970Z,100113.22
2022-10-22T19:12:53.271Z,100124.56
2022-10-22T19:15:23.475Z,100130.66
2022-10-22T19:17:55.948Z,100129.97
2022-10-22T19:20:25.537Z,100133.91
2022-10-22T19:22:56.597Z,100128.22
2022-10-22T19:25:26.156Z,100128.22
2022-10-22T19:27:55.710Z,100135.00
2022-10-22T19:30:25.564Z,100124.22
2022-10-22T19:32:56.447Z,100124.72
2022-10-22T19:35:25.987Z,100135.22
2022-10-22T19:37:55.463Z,100133.13
2022-10-22T19:40:26.960Z,100132.88
2022-10-22T19:42:56.484Z,100138.88
2022-10-22T19:45:27.002Z,100132.94
2022-10-22T19:47:58.171Z,100127.25
2022-10-22T19:50:27.805Z,100126.78
2022-10-22T19:52:59.679Z,100121.75
2022-10-22T19:55:29.374Z,100112.75
2022-10-22T19:57:59.071Z,100106.88
2022-10-22T20:00:29.453Z,100114.19
2022-10-22T20:03:00.337Z,100111.69
2022-10-22T20:05:29.900Z,100110.50
2022-10-22T20:07:59.939Z,100102.84
2022-10-22T20:10:30.151Z,100100.56
2022-10-22T20:13:00.483Z,100102.75
2022-10-22T20:15:32.261Z,100110.47
2022-10-22T20:18:03.352Z,100095.13
2022-10-22T20:20:32.938Z,100088.13
2022-10-22T20:23:04.496Z,100095.88
2022-10-22T20:25:35.199Z,100091.03
2022-10-22T20:28:06.144Z,100102.19
2022-10-22T20:30:35.739Z,100109.00
2022-10-22T20:33:06.696Z,100104.75
2022-10-22T20:35:36.647Z,100103.38
2022-10-22T20:38:06.210Z,100098.59
2022-10-22T20:40:37.401Z,100098.34
2022-10-22T20:43:09.511Z,100095.97
2022-10-22T20:45:41.318Z,100102.69
2022-10-22T20:48:13.146Z,100108.38
2022-10-22T20:50:42.665Z,100101.09
2022-10-22T20:53:16.033Z,100104.84
2022-10-22T20:55:46.367Z,100105.13
2022-10-22T20:58:17.724Z,100103.28
2022-10-22T21:00:47.714Z,100096.63
2022-10-22T21:03:18.610Z,100111.19
2022-10-22T21:05:48.267Z,100095.16
2022-10-22T21:08:18.245Z,100097.47
2022-10-22T21:10:49.146Z,100092.88
2022-10-22T21:13:19.563Z,100084.47
2022-10-22T21:15:49.818Z,100091.94
2022-10-22T21:18:20.675Z,100084.41
2022-10-22T21:20:50.283Z,100083.53
2022-10-22T21:23:19.860Z,100096.06
2022-10-22T21:25:54.035Z,100092.88
2022-10-22T21:28:23.728Z,100094.56
2022-10-22T21:30:53.430Z,100095.09
2022-10-22T21:33:24.281Z,100080.38
2022-10-22T21:35:54.660Z,100087.19
2022-10-22T21:38:25.026Z,100079.53
2022-10-22T21:40:54.631Z,100086.84
2022-10-22T21:43:24.093Z,100091.22
2022-10-22T21:46:06.904Z,100081.00
2022-10-22T21:48:40.420Z,100076.41
2022-10-22T21:51:11.071Z,100072.03
2022-10-22T21:53:41.005Z,100066.81
2022-10-22T21:56:15.363Z,100075.44
2022-10-22T21:58:44.803Z,100076.53
2022-10-22T22:01:15.111Z,100078.72
2022-10-22T22:03:46.797Z,100070.00
2022-10-22T22:06:21.133Z,100063.47
2022-10-22T22:08:52.526Z,100068.91
2022-10-22T22:11:23.757Z,100064.91
2022-10-22T22:13:54.053Z,100065.88
2022-10-22T22:16:28.422Z,100061.88
2022-10-22T22:19:00.882Z,100060.66
2022-10-22T22:21:30.650Z,100042.22
2022-10-22T22:24:00.333Z,100041.47
2022-10-22T22:26:30.385Z,100035.69
2022-10-22T22:29:00.385Z,100033.16
2022-10-22T22:31:31.037Z,100023.06
2022-10-22T22:34:02.817Z,100016.06
2022-10-22T22:36:34.377Z,100031.69
2022-10-22T22:39:04.434Z,100031.81
2022-10-22T22:41:35.011Z,100029.72
2022-10-22T22:44:04.895Z,100012.41
2022-10-22T22:46:34.813Z,100007.78
2022-10-22T22:49:06.023Z,100021.25
2022-10-22T22:51:35.797Z,100024.44
2022-10-22T22:54:05.355Z,100014.09
2022-10-22T22:56:35.374Z,100007.81
2022-10-22T22:59:06.056Z,100016.44
2022-10-22T23:01:36.855Z,100015.44
2022-10-22T23:04:08.860Z,100017.66
2022-10-22T23:06:38.475Z,100017.53
2022-10-22T23:09:09.590Z,100007.69
2022-10-22T23:11:40.147Z,100007.69
2022-10-22T23:14:13.737Z,100019.44
2022-10-22T23:16:46.139Z,100020.66
2022-10-22T23:19:17.850Z,100026.00
2022-10-22T23:21:48.437Z,100014.94
2022-10-22T23:24:19.236Z,100020.91
2022-10-22T23:26:50.010Z,100017.63
2022-10-22T23:29:20.981Z,100005.75
2022-10-22T23:31:50.987Z,100011.06
2022-10-22T23:34:22.701Z,100013.84
2022-10-22T23:36:52.230Z,100010.94
2022-10-22T23:39:23.376Z,100019.91
2022-10-22T23:41:53.127Z,100018.22
2022-10-22T23:44:23.560Z,100008.91
2022-10-22T23:46:53.233Z,100002.56
2022-10-22T23:49:24.182Z,100000.16
2022-10-22T23:51:53.719Z,100000.88
2022-10-22T23:54:23.196Z,100007.28
2022-10-22T23:56:52.982Z,99990.47
2022-10-22T23:59:22.494Z,99989.84
